createdAt,value
2023-01-25T00:01:29.862Z,101832.81
2023-01-25T00:03:59.678Z,101830.88
2023-01-25T00:06:27.039Z,101821.28
2023-01-25T00:08:53.638Z,101816.84
2023-01-25T00:11:23.532Z,101814.19
2023-01-25T00:13:52.947Z,101814.28
2023-01-25T00:16:20.798Z,101808.94
2023-01-25T00:18:48.104Z,101808.84
2023-01-25T00:21:16.257Z,101804.16
2023-01-25T00:23:46.626Z,101804.84
2023-01-25T00:26:13.839Z,101803.22
2023-01-25T00:28:40.685Z,101799.81
2023-01-25T00:31:11.049Z,101796.25
2023-01-25T00:33:37.627Z,101804.56
2023-01-25T00:36:27.347Z,101802.94
2023-01-25T00:38:54.916Z,101806.56
2023-01-25T00:41:24.601Z,101797.72
2023-01-25T00:43:51.361Z,101794.16
2023-01-25T00:46:18.817Z,101790.44
2023-01-25T00:48:45.523Z,101791.13
2023-01-25T00:51:12.187Z,101796.06
2023-01-25T00:53:38.758Z,101796.81
2023-01-25T00:56:05.822Z,101801.38
2023-01-25T00:58:32.414Z,101799.66
2023-01-25T01:00:59.155Z,101804.59
2023-01-25T01:03:25.827Z,101792.88
2023-01-25T01:06:02.837Z,101804.38
2023-01-25T01:08:38.351Z,101816.47
2023-01-25T01:11:08.569Z,101811.22
2023-01-25T01:13:36.044Z,101811.88
2023-01-25T01:16:08.257Z,101805.88
2023-01-25T01:18:35.659Z,101788.66
2023-01-25T01:21:03.569Z,101786.44
2023-01-25T01:23:30.177Z,101782.16
2023-01-25T01:25:59.756Z,101785.69
2023-01-25T01:28:27.869Z,101785.59
2023-01-25T01:30:54.528Z,101788.66
2023-01-25T01:33:21.431Z,101790.25
2023-01-25T01:35:48.285Z,101794.66
2023-01-25T01:38:14.999Z,101806.16
2023-01-25T01:40:44.709Z,101808.91
2023-01-25T01:43:18.887Z,101814.38
2023-01-25T01:45:46.260Z,101818.94
2023-01-25T01:48:34.016Z,101818.94
2023-01-25T01:51:03.315Z,101816.16
2023-01-25T01:53:31.927Z,101805.72
2023-01-25T01:56:00.581Z,101794.94
2023-01-25T01:58:31.055Z,101794.06
2023-01-25T02:00:58.204Z,101795.50
2023-01-25T02:03:25.170Z,101791.22
2023-01-25T02:05:55.153Z,101794.53
2023-01-25T02:08:22.287Z,101800.91
2023-01-25T02:10:50.298Z,101803.28
2023-01-25T02:13:20.553Z,101798.16
2023-01-25T02:15:48.495Z,101800.91
2023-01-25T02:18:15.891Z,101800.72
2023-01-25T02:20:44.251Z,101797.50
2023-01-25T02:23:11.091Z,101795.03
2023-01-25T02:25:37.928Z,101783.53
2023-01-25T02:28:07.652Z,101787.81
2023-01-25T02:30:34.415Z,101778.22
2023-01-25T02:33:01.124Z,101779.25
2023-01-25T02:35:38.748Z,101775.28
2023-01-25T02:38:06.455Z,101777.19
2023-01-25T02:40:36.632Z,101774.75
2023-01-25T02:43:03.338Z,101769.41
2023-01-25T02:45:30.343Z,101760.66
2023-01-25T02:47:57.046Z,101759.91
2023-01-25T02:50:23.675Z,101754.56
2023-01-25T02:52:50.276Z,101738.78
2023-01-25T02:55:17.152Z,101736.22
2023-01-25T02:57:45.108Z,101729.09
2023-01-25T03:00:14.143Z,101731.75
2023-01-25T03:02:40.917Z,101730.16
2023-01-25T03:05:07.864Z,101727.25
2023-01-25T03:07:34.823Z,101716.13
2023-01-25T03:10:03.656Z,101706.44
2023-01-25T03:12:31.407Z,101700.38
2023-01-25T03:14:58.643Z,101707.31
2023-01-25T03:17:26.209Z,101694.84
2023-01-25T03:19:54.052Z,101691.22
2023-01-25T03:22:21.279Z,101695.91
2023-01-25T03:24:49.115Z,101695.47
2023-01-25T03:27:18.443Z,101686.75
2023-01-25T03:29:52.651Z,101697.22
2023-01-25T03:32:22.455Z,101686.31
2023-01-25T03:34:49.376Z,101686.22
2023-01-25T03:37:17.849Z,101686.97
2023-01-25T03:39:44.458Z,101683.34
2023-01-25T03:42:11.896Z,101678.97
2023-01-25T03:44:38.632Z,101681.66
2023-01-25T03:47:05.814Z,101672.69
2023-01-25T03:49:33.292Z,101671.31
2023-01-25T03:52:02.187Z,101667.25
2023-01-25T03:54:35.573Z,101660.09
2023-01-25T03:57:02.525Z,101655.50
2023-01-25T03:59:32.139Z,101660.09
2023-01-25T04:01:58.940Z,101651.34
2023-01-25T04:04:25.955Z,101659.34
2023-01-25T04:06:53.380Z,101650.41
2023-01-25T04:09:21.994Z,101650.50
2023-01-25T04:11:52.806Z,101646.25
2023-01-25T04:14:31.800Z,101639.84
2023-01-25T04:17:11.278Z,101636.50
2023-01-25T04:19:59.502Z,101634.72
2023-01-25T04:22:32.915Z,101631.41
2023-01-25T04:24:59.755Z,101633.34
2023-01-25T04:27:26.412Z,101641.13
2023-01-25T04:29:59.732Z,101647.94
2023-01-25T04:32:27.450Z,101631.09
2023-01-25T04:34:55.016Z,101621.06
2023-01-25T04:37:24.744Z,101613.72
2023-01-25T04:39:57.652Z,101614.22
2023-01-25T04:42:25.553Z,101611.22
2023-01-25T04:44:55.213Z,101606.63
2023-01-25T04:47:22.694Z,101600.34
2023-01-25T04:49:49.415Z,101604.06
2023-01-25T04:52:19.509Z,101599.38
2023-01-25T04:54:47.580Z,101589.69
2023-01-25T04:57:14.186Z,101589.69
2023-01-25T04:59:46.938Z,101578.25
2023-01-25T05:02:13.681Z,101582.63
2023-01-25T05:04:40.284Z,101585.84
2023-01-25T05:07:07.336Z,101568.75
2023-01-25T05:09:33.887Z,101567.66
2023-01-25T05:12:00.875Z,101551.66
2023-01-25T05:14:40.540Z,101551.31
2023-01-25T05:17:07.799Z,101553.25
2023-01-25T05:19:35.727Z,101547.06
2023-01-25T05:22:07.845Z,101544.38
2023-01-25T05:24:42.958Z,101537.56
2023-01-25T05:27:12.766Z,101534.78
2023-01-25T05:29:54.797Z,101538.22
2023-01-25T05:32:36.805Z,101538.31
2023-01-25T05:35:04.003Z,101542.06
2023-01-25T05:37:30.740Z,101545.81
2023-01-25T05:40:02.382Z,101535.13
2023-01-25T05:42:35.717Z,101535.84
2023-01-25T05:45:06.018Z,101530.50
2023-01-25T05:47:34.671Z,101526.16
2023-01-25T05:50:01.508Z,101517.50
2023-01-25T05:52:41.012Z,101509.41
2023-01-25T05:55:08.746Z,101511.22
2023-01-25T05:57:35.539Z,101508.75
2023-01-25T06:00:02.747Z,101506.84
2023-01-25T06:02:40.091Z,101504.31
2023-01-25T06:05:09.569Z,101497.25
2023-01-25T06:07:36.794Z,101500.66
2023-01-25T06:10:04.187Z,101498.97
2023-01-25T06:12:31.373Z,101503.78
2023-01-25T06:14:59.069Z,101501.94
2023-01-25T06:17:26.064Z,101503.28
2023-01-25T06:19:59.085Z,101500.38
2023-01-25T06:22:49.098Z,101496.84
2023-01-25T06:25:25.966Z,101505.19
2023-01-25T06:27:54.923Z,101499.63
2023-01-25T06:30:21.694Z,101498.88
2023-01-25T06:32:50.555Z,101494.72
2023-01-25T06:35:17.389Z,101499.44
2023-01-25T06:37:44.631Z,101492.75
2023-01-25T06:40:11.498Z,101491.91
2023-01-25T06:42:38.286Z,101494.66
2023-01-25T06:45:05.367Z,101493.81
2023-01-25T06:47:32.550Z,101490.75
2023-01-25T06:49:59.253Z,101481.47
2023-01-25T06:52:25.894Z,101487.03
2023-01-25T06:55:09.191Z,101477.31
2023-01-25T06:57:36.084Z,101479.22
2023-01-25T07:00:02.772Z,101482.63
2023-01-25T07:02:29.580Z,101481.91
2023-01-25T07:04:56.279Z,101479.03
2023-01-25T07:07:22.978Z,101474.19
2023-01-25T07:09:49.620Z,101477.50
2023-01-25T07:12:16.212Z,101477.28
2023-01-25T07:14:42.840Z,101472.41
2023-01-25T07:17:09.667Z,101467.38
2023-01-25T07:19:36.365Z,101464.13
2023-01-25T07:22:03.145Z,101469.09
2023-01-25T07:24:30.101Z,101487.88
2023-01-25T07:26:56.809Z,101492.25
2023-01-25T07:29:23.647Z,101486.78
2023-01-25T07:31:53.108Z,101491.81
2023-01-25T07:34:19.955Z,101492.44
2023-01-25T07:36:47.157Z,101491.59
2023-01-25T07:39:13.989Z,101489.66
2023-01-25T07:41:40.929Z,101494.34
2023-01-25T07:44:13.272Z,101489.56
2023-01-25T07:46:46.346Z,101490.50
2023-01-25T07:49:12.986Z,101494.75
2023-01-25T07:51:39.625Z,101502.75
2023-01-25T07:54:06.352Z,101508.22
2023-01-25T07:56:40.748Z,101499.06
2023-01-25T07:59:10.537Z,101497.31
2023-01-25T08:01:37.621Z,101496.88
2023-01-25T08:04:04.815Z,101491.34
2023-01-25T08:06:35.832Z,101499.50
2023-01-25T08:09:05.289Z,101506.59
2023-01-25T08:11:32.113Z,101509.47
2023-01-25T08:13:58.848Z,101516.72
2023-01-25T08:16:26.640Z,101512.34
2023-01-25T08:18:55.104Z,101517.03
2023-01-25T08:21:24.229Z,101511.59
2023-01-25T08:23:51.453Z,101516.53
2023-01-25T08:26:18.719Z,101517.34
2023-01-25T08:28:45.419Z,101518.09
2023-01-25T08:31:16.735Z,101529.19
2023-01-25T08:33:46.053Z,101529.72
2023-01-25T08:36:13.483Z,101530.50
2023-01-25T08:38:40.172Z,101535.59
2023-01-25T08:41:09.837Z,101509.09
2023-01-25T08:43:36.783Z,101518.59
2023-01-25T08:46:03.738Z,101534.19
2023-01-25T08:48:30.314Z,101532.16
2023-01-25T08:50:57.512Z,101536.97
2023-01-25T08:53:24.227Z,101532.78
2023-01-25T08:55:50.920Z,101535.84
2023-01-25T08:58:19.889Z,101541.88
2023-01-25T09:00:46.457Z,101526.84
2023-01-25T09:03:13.200Z,101523.94
2023-01-25T09:05:39.874Z,101517.66
2023-01-25T09:08:07.970Z,101504.75
2023-01-25T09:10:35.363Z,101511.56
2023-01-25T09:13:02.033Z,101507.47
2023-01-25T09:15:28.680Z,101514.97
2023-01-25T09:17:56.095Z,101523.94
2023-01-25T09:20:22.972Z,101527.34
2023-01-25T09:22:49.562Z,101527.97
2023-01-25T09:25:16.288Z,101534.41
2023-01-25T09:27:42.930Z,101533.31
2023-01-25T09:30:18.302Z,101538.25
2023-01-25T09:32:51.492Z,101542.50
2023-01-25T09:35:18.152Z,101540.69
2023-01-25T09:37:44.715Z,101545.94
2023-01-25T09:40:24.667Z,101546.38
2023-01-25T09:42:54.762Z,101562.50
2023-01-25T09:45:21.547Z,101546.59
2023-01-25T09:47:48.067Z,101548.53
2023-01-25T09:50:17.699Z,101555.56
2023-01-25T09:52:44.228Z,101550.75
2023-01-25T09:55:13.660Z,101547.66
2023-01-25T09:57:41.947Z,101555.78
2023-01-25T10:00:23.578Z,101552.66
2023-01-25T10:02:50.238Z,101554.06
2023-01-25T10:05:25.885Z,101561.31
2023-01-25T10:08:27.741Z,101566.56
2023-01-25T10:11:04.133Z,101578.81
2023-01-25T10:13:31.943Z,101587.34
2023-01-25T10:15:58.614Z,101598.13
2023-01-25T10:18:34.350Z,101613.59
2023-01-25T10:21:06.853Z,101609.88
2023-01-25T10:23:52.149Z,101621.72
2023-01-25T10:26:38.560Z,101630.47
2023-01-25T10:29:14.004Z,101625.00
2023-01-25T10:31:40.616Z,101626.81
2023-01-25T10:34:17.130Z,101623.09
2023-01-25T10:36:46.425Z,101638.66
2023-01-25T10:39:12.999Z,101648.59
2023-01-25T10:41:42.067Z,101657.56
2023-01-25T10:44:28.909Z,101648.81
2023-01-25T10:46:57.502Z,101649.41
2023-01-25T10:49:30.080Z,101657.09
2023-01-25T10:51:56.786Z,101667.78
2023-01-25T10:54:29.376Z,101678.13
2023-01-25T10:56:57.227Z,101672.84
2023-01-25T10:59:25.355Z,101664.53
2023-01-25T11:01:52.512Z,101670.91
2023-01-25T11:04:30.358Z,101663.88
2023-01-25T11:06:57.820Z,101663.13
2023-01-25T11:09:30.408Z,101654.72
2023-01-25T11:11:58.902Z,101660.47
2023-01-25T11:14:27.813Z,101659.03
2023-01-25T11:16:55.535Z,101655.38
2023-01-25T11:19:25.084Z,101648.47
2023-01-25T11:21:52.869Z,101641.75
2023-01-25T11:24:19.539Z,101665.66
2023-01-25T11:26:46.280Z,101650.50
2023-01-25T11:29:19.903Z,101661.72
2023-01-25T11:31:51.552Z,101666.50
2023-01-25T11:34:19.530Z,101668.66
2023-01-25T11:37:02.573Z,101658.16
2023-01-25T11:39:41.504Z,101662.22
2023-01-25T11:42:27.424Z,101670.56
2023-01-25T11:44:57.016Z,101658.69
2023-01-25T11:47:56.021Z,101664.97
2023-01-25T11:50:25.718Z,101661.25
2023-01-25T11:53:11.675Z,101665.34
2023-01-25T11:55:47.756Z,101676.22
2023-01-25T11:58:29.793Z,101663.94
2023-01-25T12:00:59.470Z,101660.09
2023-01-25T12:03:43.382Z,101662.03
2023-01-25T12:06:10.076Z,101652.22
2023-01-25T12:08:42.766Z,101663.09
2023-01-25T12:11:20.407Z,101670.34
2023-01-25T12:14:02.248Z,101660.97
2023-01-25T12:16:47.584Z,101657.84
2023-01-25T12:19:32.681Z,101671.19
2023-01-25T12:22:12.609Z,101663.09
2023-01-25T12:25:03.020Z,101655.84
2023-01-25T12:27:36.033Z,101661.25
2023-01-25T12:30:02.878Z,101672.16
2023-01-25T12:32:47.091Z,101674.06
2023-01-25T12:35:22.331Z,101669.81
2023-01-25T12:37:50.085Z,101662.66
2023-01-25T12:40:21.965Z,101663.94
2023-01-25T12:42:52.237Z,101657.84
2023-01-25T12:45:27.672Z,101654.56
2023-01-25T12:47:57.224Z,101659.22
2023-01-25T12:50:27.667Z,101649.53
2023-01-25T12:52:56.096Z,101631.06
2023-01-25T12:55:22.756Z,101647.50
2023-01-25T12:58:07.348Z,101643.66
2023-01-25T13:00:57.155Z,101632.25
2023-01-25T13:03:33.621Z,101633.41
2023-01-25T13:06:03.196Z,101640.78
2023-01-25T13:08:35.669Z,101628.31
2023-01-25T13:11:05.043Z,101629.16
2023-01-25T13:13:33.324Z,101622.97
2023-01-25T13:16:19.944Z,101629.25
2023-01-25T13:18:47.227Z,101622.00
2023-01-25T13:21:33.671Z,101619.16
2023-01-25T13:24:17.183Z,101608.69
2023-01-25T13:26:53.139Z,101619.88
2023-01-25T13:29:31.918Z,101628.63
2023-01-25T13:31:59.628Z,101626.81
2023-01-25T13:34:39.655Z,101631.94
2023-01-25T13:37:25.143Z,101624.91
2023-01-25T13:39:51.760Z,101631.31
2023-01-25T13:42:20.987Z,101625.22
2023-01-25T13:44:51.624Z,101632.25
2023-01-25T13:47:23.081Z,101605.41
2023-01-25T13:49:55.892Z,101608.06
2023-01-25T13:52:23.371Z,101607.41
2023-01-25T13:54:50.693Z,101606.56
2023-01-25T13:57:25.638Z,101607.09
2023-01-25T14:00:18.944Z,101618.72
2023-01-25T14:02:47.547Z,101618.50
2023-01-25T14:05:21.224Z,101626.31
2023-01-25T14:07:49.446Z,101626.72
2023-01-25T14:10:18.983Z,101620.00
2023-01-25T14:12:46.552Z,101616.59
2023-01-25T14:15:19.503Z,101632.56
2023-01-25T14:17:46.355Z,101628.09
2023-01-25T14:20:20.287Z,101625.66
2023-01-25T14:22:47.834Z,101620.09
2023-01-25T14:25:17.099Z,101612.31
2023-01-25T14:27:48.680Z,101620.41
2023-01-25T14:30:18.173Z,101620.50
2023-01-25T14:32:44.895Z,101641.00
2023-01-25T14:35:43.327Z,101628.06
2023-01-25T14:38:23.526Z,101636.81
2023-01-25T14:40:51.370Z,101636.06
2023-01-25T14:43:18.332Z,101635.78
2023-01-25T14:45:45.301Z,101637.47
2023-01-25T14:48:30.427Z,101635.00
2023-01-25T14:51:03.016Z,101638.44
2023-01-25T14:53:29.651Z,101637.69
2023-01-25T14:55:56.327Z,101660.66
2023-01-25T14:58:24.066Z,101660.75
2023-01-25T15:00:58.745Z,101670.47
2023-01-25T15:03:26.833Z,101661.16
2023-01-25T15:05:54.430Z,101655.97
2023-01-25T15:08:29.090Z,101660.63
2023-01-25T15:10:56.570Z,101660.84
2023-01-25T15:13:24.821Z,101661.34
2023-01-25T15:15:58.369Z,101649.25
2023-01-25T15:18:44.216Z,101651.75
2023-01-25T15:21:12.471Z,101667.91
2023-01-25T15:23:40.397Z,101672.69
2023-01-25T15:26:13.313Z,101666.59
2023-01-25T15:28:39.948Z,101671.38
2023-01-25T15:31:06.743Z,101677.56
2023-01-25T15:33:34.577Z,101668.53
2023-01-25T15:36:01.131Z,101684.16
2023-01-25T15:38:27.829Z,101684.16
2023-01-25T15:41:00.332Z,101687.88
2023-01-25T15:43:27.113Z,101694.44
2023-01-25T15:45:56.749Z,101700.91
2023-01-25T15:48:27.842Z,101705.28
2023-01-25T15:50:55.648Z,101712.03
2023-01-25T15:53:22.237Z,101712.25
2023-01-25T15:55:50.277Z,101719.25
2023-01-25T15:58:20.918Z,101722.41
2023-01-25T16:00:49.385Z,101730.75
2023-01-25T16:03:18.319Z,101731.91
2023-01-25T16:05:50.040Z,101733.69
2023-01-25T16:08:19.288Z,101736.16
2023-01-25T16:10:45.898Z,101752.94
2023-01-25T16:13:12.690Z,101750.13
2023-01-25T16:15:40.097Z,101748.41
2023-01-25T16:18:07.071Z,101751.16
2023-01-25T16:20:33.696Z,101762.47
2023-01-25T16:23:01.327Z,101774.34
2023-01-25T16:25:27.979Z,101772.44
2023-01-25T16:27:54.551Z,101769.88
2023-01-25T16:30:24.124Z,101781.84
2023-01-25T16:32:51.595Z,101787.03
2023-01-25T16:35:18.545Z,101786.19
2023-01-25T16:37:45.235Z,101808.50
2023-01-25T16:40:20.699Z,101798.56
2023-01-25T16:42:47.298Z,101796.63
2023-01-25T16:45:16.802Z,101803.00
2023-01-25T16:47:43.719Z,101806.34
2023-01-25T16:50:17.689Z,101793.31
2023-01-25T16:52:45.950Z,101797.88
2023-01-25T16:55:13.557Z,101801.47
2023-01-25T16:57:41.176Z,101793.09
2023-01-25T17:00:10.783Z,101804.56
2023-01-25T17:02:40.108Z,101782.44
2023-01-25T17:05:09.813Z,101787.25
2023-01-25T17:07:36.883Z,101773.03
2023-01-25T17:10:04.174Z,101780.38
2023-01-25T17:12:30.731Z,101777.84
2023-01-25T17:14:59.626Z,101790.09
2023-01-25T17:17:31.308Z,101800.81
2023-01-25T17:19:58.219Z,101798.91
2023-01-25T17:22:25.106Z,101800.91
2023-01-25T17:24:55.722Z,101792.69
2023-01-25T17:27:23.296Z,101803.31
2023-01-25T17:29:49.903Z,101825.69
2023-01-25T17:32:17.052Z,101831.13
2023-01-25T17:34:43.875Z,101829.13
2023-01-25T17:37:10.425Z,101836.94
2023-01-25T17:39:37.163Z,101833.59
2023-01-25T17:42:05.819Z,101839.94
2023-01-25T17:44:32.597Z,101844.41
2023-01-25T17:46:59.244Z,101849.72
2023-01-25T17:49:26.440Z,101845.25
2023-01-25T17:51:53.095Z,101849.72
2023-01-25T17:54:19.917Z,101850.72
2023-01-25T17:56:46.578Z,101850.72
2023-01-25T17:59:13.165Z,101854.88
2023-01-25T18:01:42.959Z,101866.28
2023-01-25T18:04:10.163Z,101863.97
2023-01-25T18:06:36.906Z,101866.00
2023-01-25T18:09:05.741Z,101863.47
2023-01-25T18:11:33.417Z,101864.31
2023-01-25T18:14:01.758Z,101858.03
2023-01-25T18:16:29.031Z,101868.06
2023-01-25T18:18:56.633Z,101860.94
2023-01-25T18:21:25.185Z,101872.53
2023-01-25T18:23:53.901Z,101874.31
2023-01-25T18:26:20.561Z,101877.16
2023-01-25T18:28:49.171Z,101878.34
2023-01-25T18:31:17.639Z,101888.97
2023-01-25T18:33:44.788Z,101878.34
2023-01-25T18:36:14.887Z,101885.38
2023-01-25T18:38:41.522Z,101882.03
2023-01-25T18:41:10.884Z,101877.81
2023-01-25T18:43:37.600Z,101877.66
2023-01-25T18:46:04.407Z,101877.03
2023-01-25T18:48:31.704Z,101875.25
2023-01-25T18:50:59.506Z,101881.50
2023-01-25T18:53:27.207Z,101882.44
2023-01-25T18:56:03.134Z,101881.84
2023-01-25T18:58:30.803Z,101884.22
2023-01-25T19:01:02.010Z,101877.13
2023-01-25T19:03:30.512Z,101885.34
2023-01-25T19:05:58.377Z,101891.59
2023-01-25T19:08:25.786Z,101895.88
2023-01-25T19:10:59.097Z,101885.34
2023-01-25T19:13:26.059Z,101900.34
2023-01-25T19:16:03.526Z,101899.38
2023-01-25T19:18:30.996Z,101911.13
2023-01-25T19:20:57.697Z,101910.34
2023-01-25T19:23:24.281Z,101911.88
2023-01-25T19:25:56.756Z,101914.72
2023-01-25T19:28:23.796Z,101922.84
2023-01-25T19:30:50.421Z,101928.25
2023-01-25T19:33:17.151Z,101936.03
2023-01-25T19:35:43.711Z,101937.06
2023-01-25T19:38:10.533Z,101931.75
2023-01-25T19:40:37.978Z,101933.63
2023-01-25T19:43:05.143Z,101931.75
2023-01-25T19:45:31.860Z,101929.28
2023-01-25T19:47:58.392Z,101927.22
2023-01-25T19:50:25.050Z,101930.22
2023-01-25T19:52:51.642Z,101937.88
2023-01-25T19:55:18.871Z,101932.47
2023-01-25T19:57:46.134Z,101930.16
2023-01-25T20:00:13.140Z,101935.63
2023-01-25T20:02:39.875Z,101942.91
2023-01-25T20:05:06.597Z,101948.22
2023-01-25T20:07:33.371Z,101951.72
2023-01-25T20:09:59.922Z,101959.00
2023-01-25T20:12:26.559Z,101957.28
2023-01-25T20:14:53.977Z,101965.00
2023-01-25T20:17:20.600Z,101959.44
2023-01-25T20:19:47.517Z,101966.47
2023-01-25T20:22:14.162Z,101968.09
2023-01-25T20:24:40.811Z,101983.13
2023-01-25T20:27:07.994Z,101983.00
2023-01-25T20:29:34.704Z,101984.50
2023-01-25T20:32:03.303Z,101985.09
2023-01-25T20:34:29.936Z,101996.59
2023-01-25T20:36:56.507Z,101999.72
2023-01-25T20:39:23.203Z,102002.25
2023-01-25T20:41:53.279Z,101999.53
2023-01-25T20:44:21.187Z,102003.88
2023-01-25T20:46:48.059Z,102007.91
2023-01-25T20:49:16.372Z,102005.50
2023-01-25T20:51:43.204Z,102010.13
2023-01-25T20:54:10.288Z,102023.63
2023-01-25T20:56:36.916Z,102029.03
2023-01-25T20:59:03.553Z,102034.56
2023-01-25T21:01:33.331Z,102035.97
2023-01-25T21:03:59.964Z,102040.44
2023-01-25T21:06:27.300Z,102035.97
2023-01-25T21:08:54.284Z,102036.91
2023-01-25T21:11:23.110Z,102042.31
2023-01-25T21:13:49.796Z,102050.50
2023-01-25T21:16:19.150Z,102062.06
2023-01-25T21:18:46.934Z,102060.97
2023-01-25T21:21:19.621Z,102073.88
2023-01-25T21:23:47.404Z,102064.63
2023-01-25T21:26:15.810Z,102073.91
2023-01-25T21:28:44.761Z,102067.25
2023-01-25T21:31:13.524Z,102070.69
2023-01-25T21:33:41.530Z,102067.78
2023-01-25T21:36:09.057Z,102058.97
2023-01-25T21:38:36.060Z,102071.16
2023-01-25T21:41:03.883Z,102063.69
2023-01-25T21:43:50.821Z,102073.81
2023-01-25T21:46:25.532Z,102078.75
2023-01-25T21:49:13.660Z,102078.75
2023-01-25T21:51:47.047Z,102088.34
2023-01-25T21:54:14.924Z,102086.88
2023-01-25T21:56:41.728Z,102088.75
2023-01-25T21:59:08.425Z,102095.81
2023-01-25T22:01:35.264Z,102097.34
2023-01-25T22:04:10.682Z,102094.78
2023-01-25T22:06:37.814Z,102101.63
2023-01-25T22:09:04.859Z,102090.16
2023-01-25T22:11:31.494Z,102089.31
2023-01-25T22:13:58.170Z,102084.84
2023-01-25T22:16:25.062Z,102086.53
2023-01-25T22:18:51.641Z,102084.66
2023-01-25T22:21:19.387Z,102096.78
2023-01-25T22:23:47.921Z,102100.78
2023-01-25T22:26:18.787Z,102109.63
2023-01-25T22:28:52.680Z,102111.09
2023-01-25T22:31:21.217Z,102125.31
2023-01-25T22:33:48.019Z,102116.41
2023-01-25T22:36:15.967Z,102138.78
2023-01-25T22:38:42.646Z,102145.13
2023-01-25T22:41:10.875Z,102146.75
2023-01-25T22:43:38.143Z,102150.19
2023-01-25T22:46:05.694Z,102153.78
2023-01-25T22:48:33.496Z,102154.81
2023-01-25T22:51:01.051Z,102157.22
2023-01-25T22:53:27.816Z,102162.53
2023-01-25T22:56:20.442Z,102161.88
2023-01-25T22:58:48.597Z,102163.25
2023-01-25T23:01:19.821Z,102172.88
2023-01-25T23:03:47.465Z,102168.34
2023-01-25T23:06:15.240Z,102181.81
2023-01-25T23:08:42.427Z,102177.44
2023-01-25T23:11:11.681Z,102175.63
2023-01-25T23:13:40.002Z,102179.16
2023-01-25T23:16:07.822Z,102179.84
2023-01-25T23:18:52.466Z,102180.63
2023-01-25T23:21:23.048Z,102183.66
2023-01-25T23:23:49.873Z,102178.13
2023-01-25T23:26:19.377Z,102187.13
2023-01-25T23:28:53.186Z,102185.44
2023-01-25T23:31:24.470Z,102189.00
2023-01-25T23:33:52.539Z,102191.72
2023-01-25T23:36:20.863Z,102194.63
2023-01-25T23:38:49.550Z,102198.19
2023-01-25T23:41:17.368Z,102202.75
2023-01-25T23:43:44.042Z,102207.13
2023-01-25T23:46:11.194Z,102204.41
2023-01-25T23:48:37.793Z,102211.50
2023-01-25T23:51:04.520Z,102211.75
2023-01-25T23:53:31.682Z,102218.63
2023-01-25T23:56:00.209Z,102222.31
2023-01-25T23:58:27.495Z,102210.72
